sensor_id;sensor_type;location;lat;lon;timestamp;P1;durP1;ratioP1;P2;durP2;ratioP2
151;SDS011;68;48.792;9.164;2023-06-24T00:01:05;23.50;;;11.70;;
151;SDS011;68;48.792;9.164;2023-06-24T00:03:31;24.07;;;12.87;;
151;SDS011;68;48.792;9.164;2023-06-24T00:06:03;23.10;;;12.20;;
151;SDS011;68;48.792;9.164;2023-06-24T00:08:30;24.37;;;11.40;;
151;SDS011;68;48.792;9.164;2023-06-24T00:10:59;23.80;;;12.30;;
151;SDS011;68;48.792;9.164;2023-06-24T00:13:27;23.40;;;11.10;;
151;SDS011;68;48.792;9.164;2023-06-24T00:15:54;24.30;;;11.77;;
151;SDS011;68;48.792;9.164;2023-06-24T00:18:21;24.33;;;13.07;;
151;SDS011;68;48.792;9.164;2023-06-24T00:20:53;24.90;;;12.80;;
151;SDS011;68;48.792;9.164;2023-06-24T00:23:22;23.50;;;11.67;;
151;SDS011;68;48.792;9.164;2023-06-24T00:25:50;23.50;;;11.23;;
151;SDS011;68;48.792;9.164;2023-06-24T00:28:19;24.80;;;12.90;;
151;SDS011;68;48.792;9.164;2023-06-24T00:30:46;23.73;;;11.40;;
151;SDS011;68;48.792;9.164;2023-06-24T00:33:13;24.47;;;12.30;;
151;SDS011;68;48.792;9.164;2023-06-24T00:35:44;26.77;;;12.40;;
151;SDS011;68;48.792;9.164;2023-06-24T00:38:11;28.10;;;12.90;;
151;SDS011;68;48.792;9.164;2023-06-24T00:40:39;24.30;;;12.60;;
151;SDS011;68;48.792;9.164;2023-06-24T00:43:06;24.27;;;12.07;;
151;SDS011;68;48.792;9.164;2023-06-24T00:45:33;24.53;;;12.47;;
151;SDS011;68;48.792;9.164;2023-06-24T00:48:00;22.97;;;12.10;;
151;SDS011;68;48.792;9.164;2023-06-24T00:50:28;23.20;;;11.90;;
151;SDS011;68;48.792;9.164;2023-06-24T00:52:54;24.30;;;11.50;;
151;SDS011;68;48.792;9.164;2023-06-24T00:55:21;25.27;;;11.70;;
151;SDS011;68;48.792;9.164;2023-06-24T00:57:50;25.33;;;13.00;;
151;SDS011;68;48.792;9.164;2023-06-24T01:00:19;27.23;;;14.70;;
151;SDS011;68;48.792;9.164;2023-06-24T01:02:48;25.43;;;11.90;;
151;SDS011;68;48.792;9.164;2023-06-24T01:05:18;26.43;;;13.67;;
151;SDS011;68;48.792;9.164;2023-06-24T01:07:48;26.67;;;14.17;;
151;SDS011;68;48.792;9.164;2023-06-24T01:10:20;27.33;;;13.60;;
151;SDS011;68;48.792;9.164;2023-06-24T01:12:47;27.67;;;13.90;;
151;SDS011;68;48.792;9.164;2023-06-24T01:15:15;27.20;;;13.77;;
151;SDS011;68;48.792;9.164;2023-06-24T01:17:47;27.33;;;14.63;;
151;SDS011;68;48.792;9.164;2023-06-24T01:20:18;28.00;;;14.50;;
151;SDS011;68;48.792;9.164;2023-06-24T01:25:46;26.57;;;15.33;;
151;SDS011;68;48.792;9.164;2023-06-24T01:28:33;26.30;;;14.40;;
151;SDS011;68;48.792;9.164;2023-06-24T01:31:27;26.93;;;14.73;;
151;SDS011;68;48.792;9.164;2023-06-24T01:34:01;26.27;;;14.90;;
151;SDS011;68;48.792;9.164;2023-06-24T01:36:33;24.97;;;13.70;;
151;SDS011;68;48.792;9.164;2023-06-24T01:39:04;25.43;;;12.70;;
151;SDS011;68;48.792;9.164;2023-06-24T01:41:34;24.57;;;12.40;;
151;SDS011;68;48.792;9.164;2023-06-24T01:44:06;25.37;;;12.67;;
151;SDS011;68;48.792;9.164;2023-06-24T01:46:36;23.30;;;11.90;;
151;SDS011;68;48.792;9.164;2023-06-24T01:49:04;25.83;;;13.47;;
151;SDS011;68;48.792;9.164;2023-06-24T01:51:32;25.97;;;13.60;;
151;SDS011;68;48.792;9.164;2023-06-24T01:54:04;26.57;;;13.13;;
151;SDS011;68;48.792;9.164;2023-06-24T01:56:38;26.70;;;14.63;;
151;SDS011;68;48.792;9.164;2023-06-24T01:59:06;27.07;;;13.10;;
151;SDS011;68;48.792;9.164;2023-06-24T02:01:36;24.80;;;12.90;;
151;SDS011;68;48.792;9.164;2023-06-24T02:04:05;27.00;;;14.67;;
151;SDS011;68;48.792;9.164;2023-06-24T02:06:34;27.40;;;13.57;;
151;SDS011;68;48.792;9.164;2023-06-24T02:09:02;25.53;;;13.97;;
151;SDS011;68;48.792;9.164;2023-06-24T02:11:30;26.00;;;14.57;;
151;SDS011;68;48.792;9.164;2023-06-24T02:13:59;27.10;;;13.47;;
151;SDS011;68;48.792;9.164;2023-06-24T02:16:28;27.77;;;15.67;;
151;SDS011;68;48.792;9.164;2023-06-24T02:18:56;25.13;;;13.87;;
151;SDS011;68;48.792;9.164;2023-06-24T02:21:23;28.83;;;13.97;;
151;SDS011;68;48.792;9.164;2023-06-24T02:23:52;26.17;;;14.10;;
151;SDS011;68;48.792;9.164;2023-06-24T02:26:19;30.10;;;14.50;;
151;SDS011;68;48.792;9.164;2023-06-24T02:28:48;26.20;;;16.27;;
151;SDS011;68;48.792;9.164;2023-06-24T02:31:15;26.90;;;14.80;;
151;SDS011;68;48.792;9.164;2023-06-24T02:33:43;28.47;;;14.57;;
151;SDS011;68;48.792;9.164;2023-06-24T02:36:14;24.67;;;15.20;;
151;SDS011;68;48.792;9.164;2023-06-24T02:38:41;28.30;;;15.90;;
151;SDS011;68;48.792;9.164;2023-06-24T02:41:07;27.30;;;15.17;;
151;SDS011;68;48.792;9.164;2023-06-24T02:43:34;27.67;;;17.70;;
151;SDS011;68;48.792;9.164;2023-06-24T02:46:02;26.10;;;14.47;;
151;SDS011;68;48.792;9.164;2023-06-24T02:48:31;28.90;;;15.27;;
151;SDS011;68;48.792;9.164;2023-06-24T02:51:00;27.90;;;16.60;;
151;SDS011;68;48.792;9.164;2023-06-24T02:53:30;27.27;;;15.97;;
151;SDS011;68;48.792;9.164;2023-06-24T02:55:58;33.60;;;19.33;;
151;SDS011;68;48.792;9.164;2023-06-24T02:58:25;32.70;;;17.87;;
151;SDS011;68;48.792;9.164;2023-06-24T03:00:56;27.37;;;14.97;;
151;SDS011;68;48.792;9.164;2023-06-24T03:03:24;29.87;;;17.67;;
151;SDS011;68;48.792;9.164;2023-06-24T03:05:52;29.10;;;15.97;;
151;SDS011;68;48.792;9.164;2023-06-24T03:08:21;27.27;;;15.27;;
151;SDS011;68;48.792;9.164;2023-06-24T03:10:50;26.83;;;14.40;;
151;SDS011;68;48.792;9.164;2023-06-24T03:13:16;25.93;;;14.50;;
151;SDS011;68;48.792;9.164;2023-06-24T03:15:43;27.90;;;14.57;;
151;SDS011;68;48.792;9.164;2023-06-24T03:18:10;28.33;;;15.17;;
151;SDS011;68;48.792;9.164;2023-06-24T03:20:37;28.87;;;16.40;;
151;SDS011;68;48.792;9.164;2023-06-24T03:23:04;28.70;;;16.47;;
151;SDS011;68;48.792;9.164;2023-06-24T03:25:32;30.93;;;16.97;;
151;SDS011;68;48.792;9.164;2023-06-24T03:28:00;28.00;;;16.63;;
151;SDS011;68;48.792;9.164;2023-06-24T03:30:28;34.07;;;18.13;;
151;SDS011;68;48.792;9.164;2023-06-24T03:32:57;27.17;;;15.30;;
151;SDS011;68;48.792;9.164;2023-06-24T03:35:24;30.50;;;17.37;;
151;SDS011;68;48.792;9.164;2023-06-24T03:37:51;29.23;;;17.83;;
151;SDS011;68;48.792;9.164;2023-06-24T03:40:17;26.83;;;15.10;;
151;SDS011;68;48.792;9.164;2023-06-24T03:42:44;29.77;;;17.27;;
151;SDS011;68;48.792;9.164;2023-06-24T03:45:13;28.17;;;16.10;;
151;SDS011;68;48.792;9.164;2023-06-24T03:47:39;26.70;;;15.47;;
151;SDS011;68;48.792;9.164;2023-06-24T03:50:06;25.63;;;15.37;;
151;SDS011;68;48.792;9.164;2023-06-24T03:52:34;30.03;;;17.53;;
151;SDS011;68;48.792;9.164;2023-06-24T03:55:00;33.20;;;14.60;;
151;SDS011;68;48.792;9.164;2023-06-24T03:57:29;29.93;;;15.83;;
151;SDS011;68;48.792;9.164;2023-06-24T03:59:56;37.20;;;16.80;;
151;SDS011;68;48.792;9.164;2023-06-24T04:02:24;32.83;;;14.37;;
151;SDS011;68;48.792;9.164;2023-06-24T04:04:52;29.47;;;16.47;;
151;SDS011;68;48.792;9.164;2023-06-24T04:07:21;29.03;;;14.60;;
151;SDS011;68;48.792;9.164;2023-06-24T04:09:54;27.90;;;16.80;;
151;SDS011;68;48.792;9.164;2023-06-24T04:12:23;25.00;;;14.00;;
151;SDS011;68;48.792;9.164;2023-06-24T04:14:50;28.03;;;16.27;;
151;SDS011;68;48.792;9.164;2023-06-24T04:17:16;26.73;;;13.83;;
151;SDS011;68;48.792;9.164;2023-06-24T04:19:45;27.17;;;14.40;;
151;SDS011;68;48.792;9.164;2023-06-24T04:22:12;26.93;;;14.50;;
151;SDS011;68;48.792;9.164;2023-06-24T04:24:38;29.30;;;16.90;;
151;SDS011;68;48.792;9.164;2023-06-24T04:27:06;28.37;;;14.50;;
151;SDS011;68;48.792;9.164;2023-06-24T04:29:34;27.40;;;14.50;;
151;SDS011;68;48.792;9.164;2023-06-24T04:32:00;29.10;;;14.83;;
151;SDS011;68;48.792;9.164;2023-06-24T04:34:27;26.43;;;14.43;;
151;SDS011;68;48.792;9.164;2023-06-24T04:36:57;26.33;;;15.43;;
151;SDS011;68;48.792;9.164;2023-06-24T04:39:23;29.67;;;16.17;;
151;SDS011;68;48.792;9.164;2023-06-24T04:41:50;26.10;;;13.90;;
151;SDS011;68;48.792;9.164;2023-06-24T04:44:17;30.70;;;14.30;;
151;SDS011;68;48.792;9.164;2023-06-24T04:46:45;26.43;;;13.33;;
151;SDS011;68;48.792;9.164;2023-06-24T04:49:11;25.77;;;12.30;;
151;SDS011;68;48.792;9.164;2023-06-24T04:51:38;28.37;;;14.20;;
151;SDS011;68;48.792;9.164;2023-06-24T04:54:08;28.67;;;14.07;;
151;SDS011;68;48.792;9.164;2023-06-24T04:56:37;25.57;;;14.90;;
151;SDS011;68;48.792;9.164;2023-06-24T04:59:04;25.77;;;15.57;;
151;SDS011;68;48.792;9.164;2023-06-24T05:01:30;27.87;;;16.00;;
151;SDS011;68;48.792;9.164;2023-06-24T05:03:57;28.37;;;16.20;;
151;SDS011;68;48.792;9.164;2023-06-24T05:06:24;26.40;;;14.30;;
151;SDS011;68;48.792;9.164;2023-06-24T05:08:51;25.17;;;14.27;;
151;SDS011;68;48.792;9.164;2023-06-24T05:11:19;24.60;;;14.00;;
151;SDS011;68;48.792;9.164;2023-06-24T05:13:46;26.33;;;13.70;;
151;SDS011;68;48.792;9.164;2023-06-24T05:16:12;25.70;;;13.10;;
151;SDS011;68;48.792;9.164;2023-06-24T05:18:39;26.97;;;15.13;;
151;SDS011;68;48.792;9.164;2023-06-24T05:21:06;25.23;;;12.60;;
151;SDS011;68;48.792;9.164;2023-06-24T05:23:33;25.80;;;14.07;;
151;SDS011;68;48.792;9.164;2023-06-24T05:25:59;25.30;;;13.57;;
151;SDS011;68;48.792;9.164;2023-06-24T05:28:28;28.70;;;14.40;;
151;SDS011;68;48.792;9.164;2023-06-24T05:30:54;25.20;;;13.60;;
151;SDS011;68;48.792;9.164;2023-06-24T05:33:23;25.17;;;13.67;;
151;SDS011;68;48.792;9.164;2023-06-24T05:35:49;27.90;;;15.40;;
151;SDS011;68;48.792;9.164;2023-06-24T05:38:16;26.10;;;14.27;;
151;SDS011;68;48.792;9.164;2023-06-24T05:40:43;26.40;;;14.20;;
151;SDS011;68;48.792;9.164;2023-06-24T05:43:10;26.00;;;13.67;;
151;SDS011;68;48.792;9.164;2023-06-24T05:45:38;26.20;;;13.70;;
151;SDS011;68;48.792;9.164;2023-06-24T05:48:05;25.30;;;13.17;;
151;SDS011;68;48.792;9.164;2023-06-24T05:50:32;24.53;;;11.93;;
151;SDS011;68;48.792;9.164;2023-06-24T05:52:58;25.83;;;14.10;;
151;SDS011;68;48.792;9.164;2023-06-24T05:55:25;25.50;;;13.20;;
151;SDS011;68;48.792;9.164;2023-06-24T05:57:52;25.17;;;13.43;;
151;SDS011;68;48.792;9.164;2023-06-24T06:00:19;31.43;;;12.50;;
151;SDS011;68;48.792;9.164;2023-06-24T06:02:47;23.80;;;11.57;;
151;SDS011;68;48.792;9.164;2023-06-24T06:05:13;32.30;;;14.97;;
151;SDS011;68;48.792;9.164;2023-06-24T06:07:41;24.10;;;12.50;;
151;SDS011;68;48.792;9.164;2023-06-24T06:10:09;24.03;;;12.50;;
151;SDS011;68;48.792;9.164;2023-06-24T06:12:36;23.93;;;10.77;;
151;SDS011;68;48.792;9.164;2023-06-24T06:15:03;23.00;;;11.40;;
151;SDS011;68;48.792;9.164;2023-06-24T06:17:31;25.17;;;12.23;;
151;SDS011;68;48.792;9.164;2023-06-24T06:20:00;24.20;;;12.30;;
151;SDS011;68;48.792;9.164;2023-06-24T06:22:27;24.80;;;12.90;;
151;SDS011;68;48.792;9.164;2023-06-24T06:24:57;31.57;;;12.37;;
151;SDS011;68;48.792;9.164;2023-06-24T06:27:23;23.20;;;11.87;;
151;SDS011;68;48.792;9.164;2023-06-24T06:29:50;24.43;;;10.90;;
151;SDS011;68;48.792;9.164;2023-06-24T06:32:17;23.53;;;11.53;;
151;SDS011;68;48.792;9.164;2023-06-24T06:34:44;22.97;;;11.13;;
151;SDS011;68;48.792;9.164;2023-06-24T06:37:12;22.87;;;10.97;;
151;SDS011;68;48.792;9.164;2023-06-24T06:39:38;23.83;;;9.93;;
151;SDS011;68;48.792;9.164;2023-06-24T06:42:05;22.73;;;10.50;;
151;SDS011;68;48.792;9.164;2023-06-24T06:44:32;23.70;;;10.60;;
151;SDS011;68;48.792;9.164;2023-06-24T06:46:59;23.57;;;10.10;;
151;SDS011;68;48.792;9.164;2023-06-24T06:49:26;23.30;;;10.27;;
151;SDS011;68;48.792;9.164;2023-06-24T06:51:53;23.03;;;9.30;;
151;SDS011;68;48.792;9.164;2023-06-24T06:54:21;22.33;;;9.70;;
151;SDS011;68;48.792;9.164;2023-06-24T06:56:48;22.90;;;11.17;;
151;SDS011;68;48.792;9.164;2023-06-24T06:59:15;21.80;;;9.67;;
151;SDS011;68;48.792;9.164;2023-06-24T07:01:42;23.87;;;10.00;;
151;SDS011;68;48.792;9.164;2023-06-24T07:04:09;21.70;;;9.27;;
151;SDS011;68;48.792;9.164;2023-06-24T07:06:36;24.03;;;10.30;;
151;SDS011;68;48.792;9.164;2023-06-24T07:09:03;20.50;;;7.90;;
151;SDS011;68;48.792;9.164;2023-06-24T07:11:31;20.00;;;7.30;;
151;SDS011;68;48.792;9.164;2023-06-24T07:13:57;27.10;;;9.43;;
151;SDS011;68;48.792;9.164;2023-06-24T07:16:24;21.03;;;8.10;;
151;SDS011;68;48.792;9.164;2023-06-24T07:18:51;22.37;;;9.33;;
151;SDS011;68;48.792;9.164;2023-06-24T07:21:18;21.60;;;8.17;;
151;SDS011;68;48.792;9.164;2023-06-24T07:23:44;21.73;;;8.37;;
151;SDS011;68;48.792;9.164;2023-06-24T07:26:11;21.27;;;8.47;;
151;SDS011;68;48.792;9.164;2023-06-24T07:28:39;21.37;;;8.83;;
151;SDS011;68;48.792;9.164;2023-06-24T07:31:06;22.80;;;9.90;;
151;SDS011;68;48.792;9.164;2023-06-24T07:33:33;20.93;;;8.20;;
151;SDS011;68;48.792;9.164;2023-06-24T07:35:59;21.17;;;8.40;;
151;SDS011;68;48.792;9.164;2023-06-24T07:38:27;20.77;;;7.93;;
151;SDS011;68;48.792;9.164;2023-06-24T07:40:55;21.10;;;8.00;;
151;SDS011;68;48.792;9.164;2023-06-24T07:43:21;21.93;;;7.60;;
151;SDS011;68;48.792;9.164;2023-06-24T07:45:49;22.03;;;7.37;;
151;SDS011;68;48.792;9.164;2023-06-24T07:48:16;20.37;;;8.40;;
151;SDS011;68;48.792;9.164;2023-06-24T07:50:43;22.40;;;7.00;;
151;SDS011;68;48.792;9.164;2023-06-24T07:53:10;26.30;;;8.43;;
151;SDS011;68;48.792;9.164;2023-06-24T07:55:36;22.03;;;7.97;;
151;SDS011;68;48.792;9.164;2023-06-24T07:58:03;20.80;;;7.13;;
151;SDS011;68;48.792;9.164;2023-06-24T08:00:30;23.93;;;7.03;;
151;SDS011;68;48.792;9.164;2023-06-24T08:02:58;27.33;;;8.00;;
151;SDS011;68;48.792;9.164;2023-06-24T08:05:25;27.27;;;8.20;;
151;SDS011;68;48.792;9.164;2023-06-24T08:07:52;21.40;;;8.20;;
151;SDS011;68;48.792;9.164;2023-06-24T08:10:19;23.30;;;8.23;;
151;SDS011;68;48.792;9.164;2023-06-24T08:12:46;21.77;;;8.07;;
151;SDS011;68;48.792;9.164;2023-06-24T08:15:13;20.30;;;7.90;;
151;SDS011;68;48.792;9.164;2023-06-24T08:17:40;20.17;;;7.10;;
151;SDS011;68;48.792;9.164;2023-06-24T08:20:08;21.13;;;6.80;;
151;SDS011;68;48.792;9.164;2023-06-24T08:22:36;21.93;;;7.47;;
151;SDS011;68;48.792;9.164;2023-06-24T08:25:03;26.40;;;7.60;;
151;SDS011;68;48.792;9.164;2023-06-24T08:27:30;22.90;;;7.33;;
151;SDS011;68;48.792;9.164;2023-06-24T08:29:57;22.20;;;8.37;;
151;SDS011;68;48.792;9.164;2023-06-24T08:32:24;28.60;;;8.83;;
151;SDS011;68;48.792;9.164;2023-06-24T08:34:51;22.20;;;7.77;;
151;SDS011;68;48.792;9.164;2023-06-24T08:37:19;56.30;;;8.00;;
151;SDS011;68;48.792;9.164;2023-06-24T08:39:45;22.17;;;7.33;;
151;SDS011;68;48.792;9.164;2023-06-24T08:42:12;20.57;;;7.03;;
151;SDS011;68;48.792;9.164;2023-06-24T08:44:39;20.70;;;7.07;;
151;SDS011;68;48.792;9.164;2023-06-24T08:47:06;23.53;;;7.90;;
151;SDS011;68;48.792;9.164;2023-06-24T08:49:33;21.50;;;7.03;;
151;SDS011;68;48.792;9.164;2023-06-24T08:52:03;21.30;;;7.60;;
151;SDS011;68;48.792;9.164;2023-06-24T08:54:35;20.13;;;6.70;;
151;SDS011;68;48.792;9.164;2023-06-24T08:57:04;19.50;;;6.40;;
151;SDS011;68;48.792;9.164;2023-06-24T08:59:32;20.67;;;7.10;;
151;SDS011;68;48.792;9.164;2023-06-24T09:02:00;20.90;;;6.70;;
151;SDS011;68;48.792;9.164;2023-06-24T09:04:27;21.50;;;7.00;;
151;SDS011;68;48.792;9.164;2023-06-24T09:06:53;21.60;;;7.20;;
151;SDS011;68;48.792;9.164;2023-06-24T09:09:20;24.73;;;6.57;;
151;SDS011;68;48.792;9.164;2023-06-24T09:11:53;20.83;;;7.40;;
151;SDS011;68;48.792;9.164;2023-06-24T09:14:21;20.23;;;6.60;;
151;SDS011;68;48.792;9.164;2023-06-24T09:16:51;21.90;;;7.27;;
151;SDS011;68;48.792;9.164;2023-06-24T09:19:20;20.70;;;7.17;;
151;SDS011;68;48.792;9.164;2023-06-24T09:21:47;19.43;;;5.40;;
151;SDS011;68;48.792;9.164;2023-06-24T09:24:14;21.27;;;6.67;;
151;SDS011;68;48.792;9.164;2023-06-24T09:26:42;20.57;;;5.43;;
151;SDS011;68;48.792;9.164;2023-06-24T09:29:12;19.70;;;5.30;;
151;SDS011;68;48.792;9.164;2023-06-24T09:31:48;23.97;;;6.40;;
151;SDS011;68;48.792;9.164;2023-06-24T09:34:18;26.50;;;7.10;;
151;SDS011;68;48.792;9.164;2023-06-24T09:36:47;20.00;;;5.53;;
151;SDS011;68;48.792;9.164;2023-06-24T09:39:17;19.80;;;5.53;;
151;SDS011;68;48.792;9.164;2023-06-24T09:41:48;19.30;;;5.30;;
151;SDS011;68;48.792;9.164;2023-06-24T09:44:17;22.70;;;6.07;;
151;SDS011;68;48.792;9.164;2023-06-24T09:46:44;21.20;;;6.00;;
151;SDS011;68;48.792;9.164;2023-06-24T09:49:11;20.93;;;5.67;;
151;SDS011;68;48.792;9.164;2023-06-24T09:51:39;20.40;;;5.50;;
151;SDS011;68;48.792;9.164;2023-06-24T09:54:08;21.53;;;5.80;;
151;SDS011;68;48.792;9.164;2023-06-24T09:56:36;19.10;;;5.30;;
151;SDS011;68;48.792;9.164;2023-06-24T09:59:05;20.93;;;6.40;;
151;SDS011;68;48.792;9.164;2023-06-24T10:01:36;20.87;;;5.93;;
151;SDS011;68;48.792;9.164;2023-06-24T10:04:04;19.90;;;5.40;;
151;SDS011;68;48.792;9.164;2023-06-24T10:06:32;21.33;;;5.80;;
151;SDS011;68;48.792;9.164;2023-06-24T10:09:00;21.67;;;6.23;;
151;SDS011;68;48.792;9.164;2023-06-24T10:11:27;20.63;;;5.83;;
151;SDS011;68;48.792;9.164;2023-06-24T10:13:54;21.50;;;5.20;;
151;SDS011;68;48.792;9.164;2023-06-24T10:16:21;22.13;;;6.07;;
151;SDS011;68;48.792;9.164;2023-06-24T10:18:49;22.83;;;6.10;;
151;SDS011;68;48.792;9.164;2023-06-24T10:21:16;22.83;;;5.77;;
151;SDS011;68;48.792;9.164;2023-06-24T10:23:50;19.83;;;5.80;;
151;SDS011;68;48.792;9.164;2023-06-24T10:26:22;23.47;;;5.33;;
151;SDS011;68;48.792;9.164;2023-06-24T10:29:09;19.50;;;4.97;;
151;SDS011;68;48.792;9.164;2023-06-24T10:31:54;20.03;;;5.47;;
151;SDS011;68;48.792;9.164;2023-06-24T10:34:28;26.03;;;5.80;;
151;SDS011;68;48.792;9.164;2023-06-24T10:36:58;19.50;;;5.33;;
151;SDS011;68;48.792;9.164;2023-06-24T10:39:39;19.47;;;5.20;;
151;SDS011;68;48.792;9.164;2023-06-24T10:47:53;21.13;;;5.63;;
151;SDS011;68;48.792;9.164;2023-06-24T10:50:23;20.67;;;5.20;;
151;SDS011;68;48.792;9.164;2023-06-24T10:52:51;22.03;;;5.93;;
151;SDS011;68;48.792;9.164;2023-06-24T10:55:21;20.87;;;5.20;;
151;SDS011;68;48.792;9.164;2023-06-24T10:57:48;20.03;;;5.17;;
151;SDS011;68;48.792;9.164;2023-06-24T11:00:15;20.17;;;5.63;;
151;SDS011;68;48.792;9.164;2023-06-24T11:02:43;19.70;;;4.60;;
151;SDS011;68;48.792;9.164;2023-06-24T11:05:10;19.80;;;5.40;;
151;SDS011;68;48.792;9.164;2023-06-24T11:07:38;19.60;;;5.30;;
151;SDS011;68;48.792;9.164;2023-06-24T11:10:06;21.90;;;5.17;;
151;SDS011;68;48.792;9.164;2023-06-24T11:12:34;19.43;;;4.80;;
151;SDS011;68;48.792;9.164;2023-06-24T11:15:03;22.30;;;5.33;;
151;SDS011;68;48.792;9.164;2023-06-24T11:17:32;20.20;;;4.90;;
151;SDS011;68;48.792;9.164;2023-06-24T11:20:01;20.43;;;5.33;;
151;SDS011;68;48.792;9.164;2023-06-24T11:22:28;21.17;;;5.23;;
151;SDS011;68;48.792;9.164;2023-06-24T11:24:56;20.07;;;4.90;;
151;SDS011;68;48.792;9.164;2023-06-24T11:27:24;19.57;;;5.00;;
151;SDS011;68;48.792;9.164;2023-06-24T11:29:52;19.57;;;5.20;;
151;SDS011;68;48.792;9.164;2023-06-24T11:32:19;19.93;;;5.00;;
151;SDS011;68;48.792;9.164;2023-06-24T11:34:46;20.13;;;5.00;;
151;SDS011;68;48.792;9.164;2023-06-24T11:37:20;19.93;;;4.40;;
151;SDS011;68;48.792;9.164;2023-06-24T11:40:04;20.07;;;5.40;;
151;SDS011;68;48.792;9.164;2023-06-24T11:42:33;20.50;;;5.43;;
151;SDS011;68;48.792;9.164;2023-06-24T11:45:02;21.23;;;5.00;;
151;SDS011;68;48.792;9.164;2023-06-24T11:47:31;19.97;;;4.87;;
151;SDS011;68;48.792;9.164;2023-06-24T11:49:58;25.10;;;4.77;;
151;SDS011;68;48.792;9.164;2023-06-24T11:52:31;19.87;;;4.87;;
151;SDS011;68;48.792;9.164;2023-06-24T11:54:59;19.67;;;4.70;;
151;SDS011;68;48.792;9.164;2023-06-24T12:00:15;19.83;;;4.87;;
151;SDS011;68;48.792;9.164;2023-06-24T12:02:42;20.07;;;4.57;;
151;SDS011;68;48.792;9.164;2023-06-24T12:05:09;19.60;;;4.20;;
151;SDS011;68;48.792;9.164;2023-06-24T12:07:36;19.97;;;4.70;;
151;SDS011;68;48.792;9.164;2023-06-24T12:10:04;21.80;;;4.97;;
151;SDS011;68;48.792;9.164;2023-06-24T12:12:31;21.10;;;5.00;;
151;SDS011;68;48.792;9.164;2023-06-24T12:14:59;21.80;;;5.07;;
151;SDS011;68;48.792;9.164;2023-06-24T12:17:26;21.37;;;5.10;;
151;SDS011;68;48.792;9.164;2023-06-24T12:19:53;19.53;;;4.90;;
151;SDS011;68;48.792;9.164;2023-06-24T12:22:19;27.93;;;5.07;;
151;SDS011;68;48.792;9.164;2023-06-24T12:24:46;20.70;;;5.10;;
151;SDS011;68;48.792;9.164;2023-06-24T12:27:13;20.10;;;5.37;;
151;SDS011;68;48.792;9.164;2023-06-24T12:29:40;20.37;;;5.30;;
151;SDS011;68;48.792;9.164;2023-06-24T12:32:08;19.80;;;4.50;;
151;SDS011;68;48.792;9.164;2023-06-24T12:34:35;19.87;;;5.03;;
151;SDS011;68;48.792;9.164;2023-06-24T12:37:02;20.03;;;4.80;;
151;SDS011;68;48.792;9.164;2023-06-24T12:39:28;21.70;;;5.43;;
151;SDS011;68;48.792;9.164;2023-06-24T12:41:55;22.10;;;5.60;;
151;SDS011;68;48.792;9.164;2023-06-24T12:44:22;20.60;;;5.17;;
151;SDS011;68;48.792;9.164;2023-06-24T12:46:49;19.93;;;5.03;;
151;SDS011;68;48.792;9.164;2023-06-24T12:49:17;19.53;;;4.90;;
151;SDS011;68;48.792;9.164;2023-06-24T12:51:44;22.73;;;5.43;;
151;SDS011;68;48.792;9.164;2023-06-24T12:54:10;21.10;;;4.90;;
151;SDS011;68;48.792;9.164;2023-06-24T12:56:37;20.40;;;4.90;;
151;SDS011;68;48.792;9.164;2023-06-24T12:59:04;22.90;;;5.33;;
151;SDS011;68;48.792;9.164;2023-06-24T13:01:31;20.03;;;5.30;;
151;SDS011;68;48.792;9.164;2023-06-24T13:03:58;21.97;;;5.43;;
151;SDS011;68;48.792;9.164;2023-06-24T13:06:26;22.50;;;5.13;;
151;SDS011;68;48.792;9.164;2023-06-24T13:08:53;21.60;;;5.00;;
151;SDS011;68;48.792;9.164;2023-06-24T13:11:20;21.13;;;5.30;;
151;SDS011;68;48.792;9.164;2023-06-24T13:13:47;21.50;;;5.80;;
151;SDS011;68;48.792;9.164;2023-06-24T13:16:14;20.23;;;5.17;;
151;SDS011;68;48.792;9.164;2023-06-24T13:18:40;20.37;;;4.90;;
151;SDS011;68;48.792;9.164;2023-06-24T13:21:07;22.17;;;5.47;;
151;SDS011;68;48.792;9.164;2023-06-24T13:23:35;20.33;;;5.30;;
151;SDS011;68;48.792;9.164;2023-06-24T13:26:03;24.80;;;5.10;;
151;SDS011;68;48.792;9.164;2023-06-24T13:28:30;21.13;;;5.50;;
151;SDS011;68;48.792;9.164;2023-06-24T13:30:57;21.23;;;5.57;;
151;SDS011;68;48.792;9.164;2023-06-24T13:33:24;19.83;;;4.93;;
151;SDS011;68;48.792;9.164;2023-06-24T13:35:51;19.90;;;5.07;;
151;SDS011;68;48.792;9.164;2023-06-24T13:38:18;20.73;;;5.07;;
151;SDS011;68;48.792;9.164;2023-06-24T13:40:46;19.50;;;4.70;;
151;SDS011;68;48.792;9.164;2023-06-24T13:43:14;20.93;;;5.23;;
151;SDS011;68;48.792;9.164;2023-06-24T13:45:40;20.10;;;5.03;;
151;SDS011;68;48.792;9.164;2023-06-24T13:48:07;19.90;;;4.80;;
151;SDS011;68;48.792;9.164;2023-06-24T13:50:34;21.60;;;5.80;;
151;SDS011;68;48.792;9.164;2023-06-24T13:53:01;20.53;;;5.10;;
151;SDS011;68;48.792;9.164;2023-06-24T13:55:28;19.40;;;4.80;;
151;SDS011;68;48.792;9.164;2023-06-24T13:57:57;20.53;;;5.10;;
151;SDS011;68;48.792;9.164;2023-06-24T14:00:24;20.00;;;4.80;;
151;SDS011;68;48.792;9.164;2023-06-24T14:02:51;21.20;;;5.50;;
151;SDS011;68;48.792;9.164;2023-06-24T14:05:18;20.30;;;5.00;;
151;SDS011;68;48.792;9.164;2023-06-24T14:07:45;19.60;;;4.90;;
151;SDS011;68;48.792;9.164;2023-06-24T14:10:11;19.40;;;5.03;;
151;SDS011;68;48.792;9.164;2023-06-24T14:12:38;21.40;;;5.20;;
151;SDS011;68;48.792;9.164;2023-06-24T14:15:09;21.13;;;5.43;;
151;SDS011;68;48.792;9.164;2023-06-24T14:17:36;20.30;;;5.00;;
151;SDS011;68;48.792;9.164;2023-06-24T14:20:03;25.30;;;5.87;;
151;SDS011;68;48.792;9.164;2023-06-24T14:22:31;22.30;;;5.70;;
151;SDS011;68;48.792;9.164;2023-06-24T14:24:57;20.70;;;5.37;;
151;SDS011;68;48.792;9.164;2023-06-24T14:27:24;24.60;;;5.90;;
151;SDS011;68;48.792;9.164;2023-06-24T14:29:51;19.93;;;5.00;;
151;SDS011;68;48.792;9.164;2023-06-24T14:32:19;20.20;;;5.40;;
151;SDS011;68;48.792;9.164;2023-06-24T14:34:46;20.10;;;5.20;;
151;SDS011;68;48.792;9.164;2023-06-24T14:37:13;19.93;;;5.20;;
151;SDS011;68;48.792;9.164;2023-06-24T14:39:42;20.00;;;5.23;;
151;SDS011;68;48.792;9.164;2023-06-24T14:42:09;21.40;;;6.03;;
151;SDS011;68;48.792;9.164;2023-06-24T14:44:36;20.87;;;5.77;;
151;SDS011;68;48.792;9.164;2023-06-24T14:47:03;21.50;;;5.17;;
151;SDS011;68;48.792;9.164;2023-06-24T14:49:31;20.30;;;5.27;;
151;SDS011;68;48.792;9.164;2023-06-24T14:51:58;21.97;;;5.43;;
151;SDS011;68;48.792;9.164;2023-06-24T14:54:25;19.83;;;5.27;;
151;SDS011;68;48.792;9.164;2023-06-24T14:56:51;19.77;;;5.20;;
151;SDS011;68;48.792;9.164;2023-06-24T14:59:18;20.97;;;5.77;;
151;SDS011;68;48.792;9.164;2023-06-24T15:01:45;19.80;;;5.50;;
151;SDS011;68;48.792;9.164;2023-06-24T15:04:11;26.50;;;5.90;;
151;SDS011;68;48.792;9.164;2023-06-24T15:06:40;21.23;;;5.37;;
151;SDS011;68;48.792;9.164;2023-06-24T15:09:06;20.40;;;5.50;;
151;SDS011;68;48.792;9.164;2023-06-24T15:11:33;20.83;;;5.87;;
151;SDS011;68;48.792;9.164;2023-06-24T15:14:00;21.00;;;5.93;;
151;SDS011;68;48.792;9.164;2023-06-24T15:16:26;21.50;;;5.80;;
151;SDS011;68;48.792;9.164;2023-06-24T15:18:53;24.03;;;6.07;;
151;SDS011;68;48.792;9.164;2023-06-24T15:21:20;20.10;;;5.30;;
151;SDS011;68;48.792;9.164;2023-06-24T15:23:48;21.70;;;5.77;;
151;SDS011;68;48.792;9.164;2023-06-24T15:26:15;22.80;;;5.90;;
151;SDS011;68;48.792;9.164;2023-06-24T15:28:41;20.03;;;5.30;;
151;SDS011;68;48.792;9.164;2023-06-24T15:31:08;19.67;;;5.37;;
151;SDS011;68;48.792;9.164;2023-06-24T15:33:35;20.40;;;5.10;;
151;SDS011;68;48.792;9.164;2023-06-24T15:36:02;21.10;;;5.03;;
151;SDS011;68;48.792;9.164;2023-06-24T15:38:29;20.37;;;5.23;;
151;SDS011;68;48.792;9.164;2023-06-24T15:40:57;19.93;;;5.77;;
151;SDS011;68;48.792;9.164;2023-06-24T15:43:23;20.43;;;5.87;;
151;SDS011;68;48.792;9.164;2023-06-24T15:45:50;22.07;;;5.50;;
151;SDS011;68;48.792;9.164;2023-06-24T15:48:17;20.03;;;5.67;;
151;SDS011;68;48.792;9.164;2023-06-24T15:50:46;19.87;;;5.30;;
151;SDS011;68;48.792;9.164;2023-06-24T15:53:13;21.03;;;6.10;;
151;SDS011;68;48.792;9.164;2023-06-24T15:55:40;20.63;;;5.30;;